Terminal Aerodrome Forecast
Issued by NWS Charleston, SC

Home | Current Version | Previous Version | Text Only | Print | Product List | Glossary On
Versions: 1 2 3 4 5 6 7 8 9 10 11 12 13
000
FTUS42 KCHS 281733
TAFCHS
TAF
KCHS 281733Z 2818/2918 24012G20KT P6SM SCT050 SCT150
     FM282200 22008KT P6SM FEW150
     FM290700 30005KT P6SM SKC
     FM291400 04007KT P6SM FEW250=

USA.gov is the U.S. government's official web portal to all federal, state and local government web resources and services.